sensor_id;sensor_type;location;lat;lon;timestamp;temperature;humidity
38910;DHT22;24676;51.360;12.354;2023-05-10T00:02:05;11.40;99.90
38910;DHT22;24676;51.360;12.354;2023-05-10T00:04:49;11.40;99.90
38910;DHT22;24676;51.360;12.354;2023-05-10T00:07:34;11.30;99.90
38910;DHT22;24676;51.360;12.354;2023-05-10T00:10:18;11.30;99.90
38910;DHT22;24676;51.360;12.354;2023-05-10T00:13:04;11.20;99.90
38910;DHT22;24676;51.360;12.354;2023-05-10T00:15:48;11.20;99.90
38910;DHT22;24676;51.360;12.354;2023-05-10T00:18:32;11.20;99.90
38910;DHT22;24676;51.360;12.354;2023-05-10T00:21:16;11.10;99.90
38910;DHT22;24676;51.360;12.354;2023-05-10T00:24:00;11.10;99.90
38910;DHT22;24676;51.360;12.354;2023-05-10T00:26:44;11.10;99.90
38910;DHT22;24676;51.360;12.354;2023-05-10T00:29:29;11.00;99.90
38910;DHT22;24676;51.360;12.354;2023-05-10T00:32:13;11.00;99.90
38910;DHT22;24676;51.360;12.354;2023-05-10T00:34:58;11.00;99.90
38910;DHT22;24676;51.360;12.354;2023-05-10T00:37:42;11.00;99.90
38910;DHT22;24676;51.360;12.354;2023-05-10T00:40:27;11.00;99.90
38910;DHT22;24676;51.360;12.354;2023-05-10T00:43:12;11.10;99.90
38910;DHT22;24676;51.360;12.354;2023-05-10T00:45:56;11.10;99.90
38910;DHT22;24676;51.360;12.354;2023-05-10T00:48:41;11.10;99.90
38910;DHT22;24676;51.360;12.354;2023-05-10T00:51:26;11.00;99.90
38910;DHT22;24676;51.360;12.354;2023-05-10T00:54:14;11.00;99.90
38910;DHT22;24676;51.360;12.354;2023-05-10T00:56:59;10.90;99.90
38910;DHT22;24676;51.360;12.354;2023-05-10T00:59:43;11.00;99.90
38910;DHT22;24676;51.360;12.354;2023-05-10T01:02:28;10.90;99.90
38910;DHT22;24676;51.360;12.354;2023-05-10T01:05:13;10.90;99.90
38910;DHT22;24676;51.360;12.354;2023-05-10T01:07:57;10.90;99.90
38910;DHT22;24676;51.360;12.354;2023-05-10T01:10:42;10.80;99.90
38910;DHT22;24676;51.360;12.354;2023-05-10T01:13:31;10.80;99.90
38910;DHT22;24676;51.360;12.354;2023-05-10T01:16:16;10.80;99.90
38910;DHT22;24676;51.360;12.354;2023-05-10T01:19:01;10.70;99.90
38910;DHT22;24676;51.360;12.354;2023-05-10T01:22:00;10.70;99.90
38910;DHT22;24676;51.360;12.354;2023-05-10T01:36:48;10.60;99.90
38910;DHT22;24676;51.360;12.354;2023-05-10T01:39:47;10.60;99.90
38910;DHT22;24676;51.360;12.354;2023-05-10T01:42:42;10.60;99.90
38910;DHT22;24676;51.360;12.354;2023-05-10T01:45:31;10.60;99.90
38910;DHT22;24676;51.360;12.354;2023-05-10T01:48:18;10.60;99.90
38910;DHT22;24676;51.360;12.354;2023-05-10T01:51:03;10.60;99.90
38910;DHT22;24676;51.360;12.354;2023-05-10T01:53:49;10.60;99.90
38910;DHT22;24676;51.360;12.354;2023-05-10T01:56:35;10.50;99.90
38910;DHT22;24676;51.360;12.354;2023-05-10T01:59:22;10.50;99.90
38910;DHT22;24676;51.360;12.354;2023-05-10T02:02:10;10.50;99.90
38910;DHT22;24676;51.360;12.354;2023-05-10T02:04:57;10.50;99.90
38910;DHT22;24676;51.360;12.354;2023-05-10T02:07:42;10.40;99.90
38910;DHT22;24676;51.360;12.354;2023-05-10T02:10:28;10.40;99.90
38910;DHT22;24676;51.360;12.354;2023-05-10T02:13:12;10.30;99.90
38910;DHT22;24676;51.360;12.354;2023-05-10T02:15:57;10.30;99.90
38910;DHT22;24676;51.360;12.354;2023-05-10T02:18:43;10.30;99.90
38910;DHT22;24676;51.360;12.354;2023-05-10T02:21:29;10.30;99.90
38910;DHT22;24676;51.360;12.354;2023-05-10T02:24:15;10.30;99.90
38910;DHT22;24676;51.360;12.354;2023-05-10T02:27:00;10.30;99.90
38910;DHT22;24676;51.360;12.354;2023-05-10T02:29:46;10.30;99.90
38910;DHT22;24676;51.360;12.354;2023-05-10T02:32:31;10.40;99.90
38910;DHT22;24676;51.360;12.354;2023-05-10T02:35:16;10.40;99.90
38910;DHT22;24676;51.360;12.354;2023-05-10T02:38:01;10.30;99.90
38910;DHT22;24676;51.360;12.354;2023-05-10T02:40:46;10.20;99.90
38910;DHT22;24676;51.360;12.354;2023-05-10T02:43:32;10.30;99.90
38910;DHT22;24676;51.360;12.354;2023-05-10T02:46:17;10.30;99.90
38910;DHT22;24676;51.360;12.354;2023-05-10T02:49:03;10.30;99.90
38910;DHT22;24676;51.360;12.354;2023-05-10T02:51:51;10.30;99.90
38910;DHT22;24676;51.360;12.354;2023-05-10T02:54:54;10.20;99.90
38910;DHT22;24676;51.360;12.354;2023-05-10T02:57:43;10.20;99.90
38910;DHT22;24676;51.360;12.354;2023-05-10T03:00:29;10.10;99.90
38910;DHT22;24676;51.360;12.354;2023-05-10T03:03:13;10.10;99.90
38910;DHT22;24676;51.360;12.354;2023-05-10T03:05:58;10.10;99.90
38910;DHT22;24676;51.360;12.354;2023-05-10T03:08:44;10.10;99.90
38910;DHT22;24676;51.360;12.354;2023-05-10T03:11:47;10.10;99.90
38910;DHT22;24676;51.360;12.354;2023-05-10T03:17:30;10.10;99.90
38910;DHT22;24676;51.360;12.354;2023-05-10T03:20:36;10.10;99.90
38910;DHT22;24676;51.360;12.354;2023-05-10T03:23:40;10.00;99.90
38910;DHT22;24676;51.360;12.354;2023-05-10T03:26:26;10.10;99.90
38910;DHT22;24676;51.360;12.354;2023-05-10T03:29:13;10.10;99.90
38910;DHT22;24676;51.360;12.354;2023-05-10T03:31:58;10.20;99.90
38910;DHT22;24676;51.360;12.354;2023-05-10T03:34:43;10.10;99.90
38910;DHT22;24676;51.360;12.354;2023-05-10T03:37:27;10.20;99.90
38910;DHT22;24676;51.360;12.354;2023-05-10T03:40:11;10.20;99.90
38910;DHT22;24676;51.360;12.354;2023-05-10T03:42:55;10.20;99.90
38910;DHT22;24676;51.360;12.354;2023-05-10T03:45:40;10.30;99.90
38910;DHT22;24676;51.360;12.354;2023-05-10T03:48:24;10.30;99.90
38910;DHT22;24676;51.360;12.354;2023-05-10T03:51:08;10.30;99.90
38910;DHT22;24676;51.360;12.354;2023-05-10T03:53:53;10.40;99.90
38910;DHT22;24676;51.360;12.354;2023-05-10T03:56:37;10.50;99.90
38910;DHT22;24676;51.360;12.354;2023-05-10T03:59:22;10.60;99.90
38910;DHT22;24676;51.360;12.354;2023-05-10T04:02:06;10.60;99.90
38910;DHT22;24676;51.360;12.354;2023-05-10T04:04:50;10.70;99.90
38910;DHT22;24676;51.360;12.354;2023-05-10T04:07:34;10.80;99.90
38910;DHT22;24676;51.360;12.354;2023-05-10T04:10:18;10.90;99.90
38910;DHT22;24676;51.360;12.354;2023-05-10T04:13:03;11.00;99.90
38910;DHT22;24676;51.360;12.354;2023-05-10T04:15:47;11.10;99.90
38910;DHT22;24676;51.360;12.354;2023-05-10T04:18:31;11.20;99.90
38910;DHT22;24676;51.360;12.354;2023-05-10T04:21:16;11.30;99.90
38910;DHT22;24676;51.360;12.354;2023-05-10T04:24:00;11.40;99.90
38910;DHT22;24676;51.360;12.354;2023-05-10T04:26:44;11.60;99.90
38910;DHT22;24676;51.360;12.354;2023-05-10T04:29:29;11.70;99.90
38910;DHT22;24676;51.360;12.354;2023-05-10T04:32:13;11.70;99.90
38910;DHT22;24676;51.360;12.354;2023-05-10T04:35:00;11.80;99.90
38910;DHT22;24676;51.360;12.354;2023-05-10T04:37:46;11.90;99.90
38910;DHT22;24676;51.360;12.354;2023-05-10T04:40:30;12.00;99.90
38910;DHT22;24676;51.360;12.354;2023-05-10T04:43:14;12.10;99.90
38910;DHT22;24676;51.360;12.354;2023-05-10T04:45:58;12.20;99.90
38910;DHT22;24676;51.360;12.354;2023-05-10T04:48:43;12.60;99.90
38910;DHT22;24676;51.360;12.354;2023-05-10T04:51:28;14.10;98.50
38910;DHT22;24676;51.360;12.354;2023-05-10T04:54:12;16.00;81.80
38910;DHT22;24676;51.360;12.354;2023-05-10T04:56:56;17.60;64.80
38910;DHT22;24676;51.360;12.354;2023-05-10T04:59:40;18.80;56.50
38910;DHT22;24676;51.360;12.354;2023-05-10T05:02:25;19.30;53.00
38910;DHT22;24676;51.360;12.354;2023-05-10T05:05:09;20.10;50.50
38910;DHT22;24676;51.360;12.354;2023-05-10T05:07:53;20.70;48.30
38910;DHT22;24676;51.360;12.354;2023-05-10T05:10:38;20.90;46.90
38910;DHT22;24676;51.360;12.354;2023-05-10T05:13:22;21.70;45.90
38910;DHT22;24676;51.360;12.354;2023-05-10T05:16:06;22.30;43.60
38910;DHT22;24676;51.360;12.354;2023-05-10T05:18:50;23.10;42.80
38910;DHT22;24676;51.360;12.354;2023-05-10T05:21:35;24.40;40.00
38910;DHT22;24676;51.360;12.354;2023-05-10T05:24:19;24.50;38.80
38910;DHT22;24676;51.360;12.354;2023-05-10T05:27:04;24.80;38.50
38910;DHT22;24676;51.360;12.354;2023-05-10T05:29:48;25.40;37.00
38910;DHT22;24676;51.360;12.354;2023-05-10T05:32:32;26.30;35.30
38910;DHT22;24676;51.360;12.354;2023-05-10T05:35:16;26.50;34.60
38910;DHT22;24676;51.360;12.354;2023-05-10T05:38:00;26.90;33.80
38910;DHT22;24676;51.360;12.354;2023-05-10T05:40:45;27.00;33.70
38910;DHT22;24676;51.360;12.354;2023-05-10T05:43:29;28.10;32.50
38910;DHT22;24676;51.360;12.354;2023-05-10T05:46:14;28.30;31.50
38910;DHT22;24676;51.360;12.354;2023-05-10T05:48:58;27.40;31.90
38910;DHT22;24676;51.360;12.354;2023-05-10T05:51:42;25.50;33.80
38910;DHT22;24676;51.360;12.354;2023-05-10T05:54:27;24.10;36.30
38910;DHT22;24676;51.360;12.354;2023-05-10T05:57:11;22.60;39.10
38910;DHT22;24676;51.360;12.354;2023-05-10T05:59:56;21.10;42.30
38910;DHT22;24676;51.360;12.354;2023-05-10T06:02:40;20.00;45.50
38910;DHT22;24676;51.360;12.354;2023-05-10T06:05:24;18.90;47.70
38910;DHT22;24676;51.360;12.354;2023-05-10T06:08:08;18.00;50.30
38910;DHT22;24676;51.360;12.354;2023-05-10T06:10:53;17.40;52.10
38910;DHT22;24676;51.360;12.354;2023-05-10T06:13:37;17.10;53.60
38910;DHT22;24676;51.360;12.354;2023-05-10T06:16:21;16.90;55.30
38910;DHT22;24676;51.360;12.354;2023-05-10T06:19:06;16.70;55.70
38910;DHT22;24676;51.360;12.354;2023-05-10T06:21:50;16.60;56.90
38910;DHT22;24676;51.360;12.354;2023-05-10T06:24:34;16.50;57.90
38910;DHT22;24676;51.360;12.354;2023-05-10T06:27:19;16.50;58.60
38910;DHT22;24676;51.360;12.354;2023-05-10T06:30:03;16.80;58.50
38910;DHT22;24676;51.360;12.354;2023-05-10T06:32:49;17.20;57.80
38910;DHT22;24676;51.360;12.354;2023-05-10T06:35:33;17.90;57.30
38910;DHT22;24676;51.360;12.354;2023-05-10T06:38:17;18.40;55.70
38910;DHT22;24676;51.360;12.354;2023-05-10T06:41:01;19.20;53.50
38910;DHT22;24676;51.360;12.354;2023-05-10T06:43:46;19.60;52.20
38910;DHT22;24676;51.360;12.354;2023-05-10T06:46:30;21.20;50.90
38910;DHT22;24676;51.360;12.354;2023-05-10T06:49:14;24.40;43.10
38910;DHT22;24676;51.360;12.354;2023-05-10T06:51:59;26.70;38.10
38910;DHT22;24676;51.360;12.354;2023-05-10T06:54:43;28.50;34.50
38910;DHT22;24676;51.360;12.354;2023-05-10T06:57:27;28.50;32.30
38910;DHT22;24676;51.360;12.354;2023-05-10T07:00:12;28.00;34.00
38910;DHT22;24676;51.360;12.354;2023-05-10T07:02:56;28.10;33.50
38910;DHT22;24676;51.360;12.354;2023-05-10T07:05:40;27.50;33.80
38910;DHT22;24676;51.360;12.354;2023-05-10T07:08:25;26.60;35.10
38910;DHT22;24676;51.360;12.354;2023-05-10T07:11:09;25.00;37.10
38910;DHT22;24676;51.360;12.354;2023-05-10T07:13:56;23.60;39.90
38910;DHT22;24676;51.360;12.354;2023-05-10T07:16:40;23.10;41.80
38910;DHT22;24676;51.360;12.354;2023-05-10T07:19:25;23.10;42.20
38910;DHT22;24676;51.360;12.354;2023-05-10T07:22:09;23.60;41.70
38910;DHT22;24676;51.360;12.354;2023-05-10T07:24:53;25.10;39.50
38910;DHT22;24676;51.360;12.354;2023-05-10T07:27:38;27.20;36.60
38910;DHT22;24676;51.360;12.354;2023-05-10T07:30:22;28.30;34.50
38910;DHT22;24676;51.360;12.354;2023-05-10T07:33:07;28.60;33.40
38910;DHT22;24676;51.360;12.354;2023-05-10T07:35:53;27.40;33.80
38910;DHT22;24676;51.360;12.354;2023-05-10T07:38:37;27.60;34.70
38910;DHT22;24676;51.360;12.354;2023-05-10T07:41:21;28.30;33.80
38910;DHT22;24676;51.360;12.354;2023-05-10T07:44:06;28.30;33.10
38910;DHT22;24676;51.360;12.354;2023-05-10T07:46:50;28.90;32.80
38910;DHT22;24676;51.360;12.354;2023-05-10T07:49:35;27.80;33.70
38910;DHT22;24676;51.360;12.354;2023-05-10T07:52:19;26.60;35.00
38910;DHT22;24676;51.360;12.354;2023-05-10T07:55:04;25.50;37.70
38910;DHT22;24676;51.360;12.354;2023-05-10T07:57:49;24.60;39.60
38910;DHT22;24676;51.360;12.354;2023-05-10T08:00:33;24.00;40.80
38910;DHT22;24676;51.360;12.354;2023-05-10T08:03:17;23.50;42.60
38910;DHT22;24676;51.360;12.354;2023-05-10T08:06:02;23.20;42.90
38910;DHT22;24676;51.360;12.354;2023-05-10T08:08:46;22.60;44.50
38910;DHT22;24676;51.360;12.354;2023-05-10T08:11:33;22.20;45.70
38910;DHT22;24676;51.360;12.354;2023-05-10T08:14:17;21.80;46.10
38910;DHT22;24676;51.360;12.354;2023-05-10T08:17:03;21.20;47.80
38910;DHT22;24676;51.360;12.354;2023-05-10T08:19:47;20.90;49.30
38910;DHT22;24676;51.360;12.354;2023-05-10T08:22:32;20.70;49.60
38910;DHT22;24676;51.360;12.354;2023-05-10T08:25:16;20.70;50.40
38910;DHT22;24676;51.360;12.354;2023-05-10T08:28:00;20.80;50.00
38910;DHT22;24676;51.360;12.354;2023-05-10T08:30:44;20.40;51.20
38910;DHT22;24676;51.360;12.354;2023-05-10T08:33:28;19.70;53.40
38910;DHT22;24676;51.360;12.354;2023-05-10T08:36:12;19.50;54.90
38910;DHT22;24676;51.360;12.354;2023-05-10T08:38:58;19.40;55.90
38910;DHT22;24676;51.360;12.354;2023-05-10T08:41:44;19.30;57.20
38910;DHT22;24676;51.360;12.354;2023-05-10T08:44:30;19.30;57.70
38910;DHT22;24676;51.360;12.354;2023-05-10T08:47:18;19.10;58.40
38910;DHT22;24676;51.360;12.354;2023-05-10T08:50:02;18.80;59.90
38910;DHT22;24676;51.360;12.354;2023-05-10T08:52:48;18.50;62.10
38910;DHT22;24676;51.360;12.354;2023-05-10T08:55:35;18.00;66.90
38910;DHT22;24676;51.360;12.354;2023-05-10T08:58:21;17.70;72.20
38910;DHT22;24676;51.360;12.354;2023-05-10T09:01:05;17.70;79.50
38910;DHT22;24676;51.360;12.354;2023-05-10T09:03:50;17.50;86.20
38910;DHT22;24676;51.360;12.354;2023-05-10T09:06:35;17.30;91.30
38910;DHT22;24676;51.360;12.354;2023-05-10T09:09:20;17.20;92.80
38910;DHT22;24676;51.360;12.354;2023-05-10T09:12:05;17.30;94.10
38910;DHT22;24676;51.360;12.354;2023-05-10T09:14:51;17.00;96.50
38910;DHT22;24676;51.360;12.354;2023-05-10T09:17:37;16.60;99.90
38910;DHT22;24676;51.360;12.354;2023-05-10T09:20:22;16.20;99.90
38910;DHT22;24676;51.360;12.354;2023-05-10T09:23:06;15.90;99.90
38910;DHT22;24676;51.360;12.354;2023-05-10T09:26:02;15.70;99.90
38910;DHT22;24676;51.360;12.354;2023-05-10T09:28:56;15.30;99.90
38910;DHT22;24676;51.360;12.354;2023-05-10T09:31:49;15.10;99.90
38910;DHT22;24676;51.360;12.354;2023-05-10T09:34:38;14.90;99.90
38910;DHT22;24676;51.360;12.354;2023-05-10T09:37:31;14.50;99.90
38910;DHT22;24676;51.360;12.354;2023-05-10T09:40:17;14.30;99.90
38910;DHT22;24676;51.360;12.354;2023-05-10T09:43:08;14.00;99.90
38910;DHT22;24676;51.360;12.354;2023-05-10T09:45:54;13.70;99.90
38910;DHT22;24676;51.360;12.354;2023-05-10T09:48:46;13.50;99.90
38910;DHT22;24676;51.360;12.354;2023-05-10T09:51:31;13.30;99.90
38910;DHT22;24676;51.360;12.354;2023-05-10T09:54:16;13.20;99.90
38910;DHT22;24676;51.360;12.354;2023-05-10T09:57:01;13.20;99.90
38910;DHT22;24676;51.360;12.354;2023-05-10T09:59:45;13.20;99.90
38910;DHT22;24676;51.360;12.354;2023-05-10T10:02:31;13.20;99.90
38910;DHT22;24676;51.360;12.354;2023-05-10T10:05:17;13.30;99.90
38910;DHT22;24676;51.360;12.354;2023-05-10T10:08:05;13.50;99.90
38910;DHT22;24676;51.360;12.354;2023-05-10T10:10:50;13.40;99.90
38910;DHT22;24676;51.360;12.354;2023-05-10T10:13:34;13.40;99.90
38910;DHT22;24676;51.360;12.354;2023-05-10T10:16:18;13.30;99.90
38910;DHT22;24676;51.360;12.354;2023-05-10T10:19:03;13.40;99.90
38910;DHT22;24676;51.360;12.354;2023-05-10T10:21:49;13.60;99.90
38910;DHT22;24676;51.360;12.354;2023-05-10T10:24:34;13.70;99.90
38910;DHT22;24676;51.360;12.354;2023-05-10T10:30:50;13.80;99.90
38910;DHT22;24676;51.360;12.354;2023-05-10T10:36:25;13.80;99.90
38910;DHT22;24676;51.360;12.354;2023-05-10T10:39:11;13.70;99.90
38910;DHT22;24676;51.360;12.354;2023-05-10T10:41:57;13.80;99.90
38910;DHT22;24676;51.360;12.354;2023-05-10T10:44:41;13.80;99.90
38910;DHT22;24676;51.360;12.354;2023-05-10T10:47:28;13.90;99.90
38910;DHT22;24676;51.360;12.354;2023-05-10T10:50:14;14.00;99.90
38910;DHT22;24676;51.360;12.354;2023-05-10T10:53:10;14.00;99.90
38910;DHT22;24676;51.360;12.354;2023-05-10T10:56:11;14.00;99.90
38910;DHT22;24676;51.360;12.354;2023-05-10T10:58:59;14.00;99.90
38910;DHT22;24676;51.360;12.354;2023-05-10T11:01:44;13.90;99.90
38910;DHT22;24676;51.360;12.354;2023-05-10T11:04:28;13.90;99.90
38910;DHT22;24676;51.360;12.354;2023-05-10T11:07:16;13.90;99.90
38910;DHT22;24676;51.360;12.354;2023-05-10T11:10:05;14.00;99.90
38910;DHT22;24676;51.360;12.354;2023-05-10T11:13:05;14.10;99.90
38910;DHT22;24676;51.360;12.354;2023-05-10T11:15:50;14.10;99.90
38910;DHT22;24676;51.360;12.354;2023-05-10T11:18:36;14.10;99.90
38910;DHT22;24676;51.360;12.354;2023-05-10T11:21:21;14.20;99.90
38910;DHT22;24676;51.360;12.354;2023-05-10T11:24:13;14.20;99.90
38910;DHT22;24676;51.360;12.354;2023-05-10T11:26:57;14.20;99.90
38910;DHT22;24676;51.360;12.354;2023-05-10T11:29:43;14.20;99.90
38910;DHT22;24676;51.360;12.354;2023-05-10T11:32:27;14.20;99.90
38910;DHT22;24676;51.360;12.354;2023-05-10T11:35:12;14.30;99.90
38910;DHT22;24676;51.360;12.354;2023-05-10T11:37:56;14.30;99.90
38910;DHT22;24676;51.360;12.354;2023-05-10T11:40:40;14.40;99.90
38910;DHT22;24676;51.360;12.354;2023-05-10T11:43:26;14.50;99.90
38910;DHT22;24676;51.360;12.354;2023-05-10T11:46:14;14.50;99.90
38910;DHT22;24676;51.360;12.354;2023-05-10T11:49:00;14.50;99.90
38910;DHT22;24676;51.360;12.354;2023-05-10T11:51:45;14.60;99.90
38910;DHT22;24676;51.360;12.354;2023-05-10T11:54:30;14.60;99.90
38910;DHT22;24676;51.360;12.354;2023-05-10T11:57:15;14.80;99.90
38910;DHT22;24676;51.360;12.354;2023-05-10T11:59:59;14.80;99.90
38910;DHT22;24676;51.360;12.354;2023-05-10T12:02:44;14.80;99.90
38910;DHT22;24676;51.360;12.354;2023-05-10T12:05:32;14.80;99.90
38910;DHT22;24676;51.360;12.354;2023-05-10T12:08:19;14.90;99.90
38910;DHT22;24676;51.360;12.354;2023-05-10T12:11:07;14.90;99.90
38910;DHT22;24676;51.360;12.354;2023-05-10T12:13:52;14.90;99.90
38910;DHT22;24676;51.360;12.354;2023-05-10T12:16:37;14.90;99.90
38910;DHT22;24676;51.360;12.354;2023-05-10T12:19:21;15.00;99.90
38910;DHT22;24676;51.360;12.354;2023-05-10T12:22:05;15.10;99.90
38910;DHT22;24676;51.360;12.354;2023-05-10T12:24:50;15.20;99.90
38910;DHT22;24676;51.360;12.354;2023-05-10T12:27:34;15.10;99.90
38910;DHT22;24676;51.360;12.354;2023-05-10T12:30:24;15.10;99.90
38910;DHT22;24676;51.360;12.354;2023-05-10T12:33:13;15.10;99.90
38910;DHT22;24676;51.360;12.354;2023-05-10T12:35:59;15.20;99.90
38910;DHT22;24676;51.360;12.354;2023-05-10T12:38:45;15.20;99.90
38910;DHT22;24676;51.360;12.354;2023-05-10T12:41:32;15.30;99.90
38910;DHT22;24676;51.360;12.354;2023-05-10T12:44:15;15.30;99.90
38910;DHT22;24676;51.360;12.354;2023-05-10T12:46:59;15.20;99.90
38910;DHT22;24676;51.360;12.354;2023-05-10T12:49:43;15.20;99.90
38910;DHT22;24676;51.360;12.354;2023-05-10T12:52:29;15.30;99.90
38910;DHT22;24676;51.360;12.354;2023-05-10T12:55:13;15.50;99.90
38910;DHT22;24676;51.360;12.354;2023-05-10T12:57:58;15.50;99.90
38910;DHT22;24676;51.360;12.354;2023-05-10T13:00:42;15.50;99.90
38910;DHT22;24676;51.360;12.354;2023-05-10T13:03:27;15.60;99.90
38910;DHT22;24676;51.360;12.354;2023-05-10T13:06:13;15.60;99.90
38910;DHT22;24676;51.360;12.354;2023-05-10T13:08:57;15.60;99.90
38910;DHT22;24676;51.360;12.354;2023-05-10T13:11:42;15.50;99.90
38910;DHT22;24676;51.360;12.354;2023-05-10T13:14:26;15.50;99.90
38910;DHT22;24676;51.360;12.354;2023-05-10T13:17:10;15.50;99.90
38910;DHT22;24676;51.360;12.354;2023-05-10T13:19:58;15.50;99.90
38910;DHT22;24676;51.360;12.354;2023-05-10T13:22:45;15.60;99.90
38910;DHT22;24676;51.360;12.354;2023-05-10T13:25:29;15.60;99.90
38910;DHT22;24676;51.360;12.354;2023-05-10T13:28:14;15.70;99.90
38910;DHT22;24676;51.360;12.354;2023-05-10T13:30:58;15.90;99.90
38910;DHT22;24676;51.360;12.354;2023-05-10T13:33:44;15.90;99.90
38910;DHT22;24676;51.360;12.354;2023-05-10T13:36:28;15.90;99.90
38910;DHT22;24676;51.360;12.354;2023-05-10T13:39:12;15.80;99.90
38910;DHT22;24676;51.360;12.354;2023-05-10T13:41:57;15.80;99.90
38910;DHT22;24676;51.360;12.354;2023-05-10T13:44:41;15.80;99.90
38910;DHT22;24676;51.360;12.354;2023-05-10T13:47:26;15.90;99.90
38910;DHT22;24676;51.360;12.354;2023-05-10T13:50:10;16.10;99.90
38910;DHT22;24676;51.360;12.354;2023-05-10T13:52:54;16.10;99.90
38910;DHT22;24676;51.360;12.354;2023-05-10T13:55:39;16.00;99.90
38910;DHT22;24676;51.360;12.354;2023-05-10T13:58:24;16.00;99.90
38910;DHT22;24676;51.360;12.354;2023-05-10T14:01:08;16.00;99.90
38910;DHT22;24676;51.360;12.354;2023-05-10T14:03:52;16.00;99.90
38910;DHT22;24676;51.360;12.354;2023-05-10T14:06:36;15.90;99.90
38910;DHT22;24676;51.360;12.354;2023-05-10T14:09:21;15.80;99.90
38910;DHT22;24676;51.360;12.354;2023-05-10T14:12:05;15.60;99.90
38910;DHT22;24676;51.360;12.354;2023-05-10T14:14:49;15.50;99.90
38910;DHT22;24676;51.360;12.354;2023-05-10T14:17:33;15.30;99.90
38910;DHT22;24676;51.360;12.354;2023-05-10T14:20:18;15.20;99.90
38910;DHT22;24676;51.360;12.354;2023-05-10T14:23:02;15.00;99.90
38910;DHT22;24676;51.360;12.354;2023-05-10T14:25:46;14.90;99.90
38910;DHT22;24676;51.360;12.354;2023-05-10T14:28:30;14.80;99.90
38910;DHT22;24676;51.360;12.354;2023-05-10T14:31:14;14.80;99.90
38910;DHT22;24676;51.360;12.354;2023-05-10T14:34:00;14.90;99.90
38910;DHT22;24676;51.360;12.354;2023-05-10T14:36:44;14.90;99.90
38910;DHT22;24676;51.360;12.354;2023-05-10T14:39:29;14.90;99.90
38910;DHT22;24676;51.360;12.354;2023-05-10T14:42:14;15.00;99.90
38910;DHT22;24676;51.360;12.354;2023-05-10T14:44:58;15.10;99.90
38910;DHT22;24676;51.360;12.354;2023-05-10T14:47:42;15.30;99.90
38910;DHT22;24676;51.360;12.354;2023-05-10T14:50:27;15.50;99.90
38910;DHT22;24676;51.360;12.354;2023-05-10T14:53:11;15.70;99.90
38910;DHT22;24676;51.360;12.354;2023-05-10T14:55:55;15.70;99.90
38910;DHT22;24676;51.360;12.354;2023-05-10T14:58:39;15.60;99.90
38910;DHT22;24676;51.360;12.354;2023-05-10T15:01:23;15.50;99.90
38910;DHT22;24676;51.360;12.354;2023-05-10T15:04:08;15.40;99.90
38910;DHT22;24676;51.360;12.354;2023-05-10T15:06:53;15.20;99.90
38910;DHT22;24676;51.360;12.354;2023-05-10T15:09:42;15.20;99.90
38910;DHT22;24676;51.360;12.354;2023-05-10T15:12:27;15.10;99.90
38910;DHT22;24676;51.360;12.354;2023-05-10T15:15:11;15.10;99.90
38910;DHT22;24676;51.360;12.354;2023-05-10T15:17:56;15.00;99.90
38910;DHT22;24676;51.360;12.354;2023-05-10T15:20:40;14.70;99.90
38910;DHT22;24676;51.360;12.354;2023-05-10T15:23:25;14.50;99.90
38910;DHT22;24676;51.360;12.354;2023-05-10T15:26:09;14.30;99.90
38910;DHT22;24676;51.360;12.354;2023-05-10T15:28:53;14.10;99.90
38910;DHT22;24676;51.360;12.354;2023-05-10T15:31:38;14.00;99.90
38910;DHT22;24676;51.360;12.354;2023-05-10T15:34:23;13.90;99.90
38910;DHT22;24676;51.360;12.354;2023-05-10T15:37:07;13.90;99.90
38910;DHT22;24676;51.360;12.354;2023-05-10T15:39:52;13.80;99.90
38910;DHT22;24676;51.360;12.354;2023-05-10T15:42:36;13.80;99.90
38910;DHT22;24676;51.360;12.354;2023-05-10T15:45:20;13.90;99.90
38910;DHT22;24676;51.360;12.354;2023-05-10T15:48:05;13.90;99.90
38910;DHT22;24676;51.360;12.354;2023-05-10T15:50:50;14.00;99.90
38910;DHT22;24676;51.360;12.354;2023-05-10T15:53:34;14.00;99.90
38910;DHT22;24676;51.360;12.354;2023-05-10T15:56:19;14.00;99.90
38910;DHT22;24676;51.360;12.354;2023-05-10T15:59:03;14.00;99.90
38910;DHT22;24676;51.360;12.354;2023-05-10T16:01:49;14.00;99.90
38910;DHT22;24676;51.360;12.354;2023-05-10T16:04:33;14.10;99.90
38910;DHT22;24676;51.360;12.354;2023-05-10T16:07:17;14.00;99.90
38910;DHT22;24676;51.360;12.354;2023-05-10T16:10:02;14.00;99.90
38910;DHT22;24676;51.360;12.354;2023-05-10T16:12:49;14.10;99.90
38910;DHT22;24676;51.360;12.354;2023-05-10T16:15:33;14.10;99.90
38910;DHT22;24676;51.360;12.354;2023-05-10T16:18:17;14.20;99.90
38910;DHT22;24676;51.360;12.354;2023-05-10T16:21:02;14.20;99.90
38910;DHT22;24676;51.360;12.354;2023-05-10T16:23:46;14.20;99.90
38910;DHT22;24676;51.360;12.354;2023-05-10T16:26:31;14.20;99.90
38910;DHT22;24676;51.360;12.354;2023-05-10T16:29:15;14.30;99.90
38910;DHT22;24676;51.360;12.354;2023-05-10T16:32:00;14.30;99.90
38910;DHT22;24676;51.360;12.354;2023-05-10T16:34:44;14.40;99.90
38910;DHT22;24676;51.360;12.354;2023-05-10T16:37:29;14.50;99.90
38910;DHT22;24676;51.360;12.354;2023-05-10T16:40:13;14.50;99.90
38910;DHT22;24676;51.360;12.354;2023-05-10T16:42:57;14.60;99.90
38910;DHT22;24676;51.360;12.354;2023-05-10T16:45:42;14.70;99.90
38910;DHT22;24676;51.360;12.354;2023-05-10T16:48:26;14.70;99.90
38910;DHT22;24676;51.360;12.354;2023-05-10T16:51:10;14.70;99.90
38910;DHT22;24676;51.360;12.354;2023-05-10T16:53:55;14.70;99.90
38910;DHT22;24676;51.360;12.354;2023-05-10T16:56:39;14.70;99.90
38910;DHT22;24676;51.360;12.354;2023-05-10T16:59:23;14.80;99.90
38910;DHT22;24676;51.360;12.354;2023-05-10T17:02:08;14.80;99.90
38910;DHT22;24676;51.360;12.354;2023-05-10T17:04:52;14.80;99.90
38910;DHT22;24676;51.360;12.354;2023-05-10T17:07:37;14.80;99.90
38910;DHT22;24676;51.360;12.354;2023-05-10T17:10:22;14.70;99.90
38910;DHT22;24676;51.360;12.354;2023-05-10T17:13:06;14.60;99.90
38910;DHT22;24676;51.360;12.354;2023-05-10T17:15:50;14.60;99.90
38910;DHT22;24676;51.360;12.354;2023-05-10T17:18:34;14.60;99.90
38910;DHT22;24676;51.360;12.354;2023-05-10T17:21:18;14.60;99.90
38910;DHT22;24676;51.360;12.354;2023-05-10T17:24:02;14.60;99.90
38910;DHT22;24676;51.360;12.354;2023-05-10T17:26:46;14.60;99.90
38910;DHT22;24676;51.360;12.354;2023-05-10T17:29:31;14.60;99.90